createdAt,value
2019-03-29T00:01:19.874Z,129.95
2019-03-29T00:03:48.672Z,134.85
2019-03-29T00:06:17.380Z,141.68
2019-03-29T00:08:46.009Z,156.00
2019-03-29T00:11:14.500Z,148.65
2019-03-29T00:13:43.023Z,148.80
2019-03-29T00:16:11.570Z,156.43
2019-03-29T00:18:40.122Z,166.00
2019-03-29T00:21:08.703Z,167.45
2019-03-29T00:23:37.399Z,158.57
2019-03-29T00:26:06.079Z,160.25
2019-03-29T00:28:34.613Z,185.52
2019-03-29T00:31:03.162Z,186.25
2019-03-29T00:33:31.639Z,158.68
2019-03-29T00:36:00.170Z,150.72
2019-03-29T00:38:29.041Z,148.07
2019-03-29T00:40:58.874Z,185.82
2019-03-29T00:43:27.512Z,174.77
2019-03-29T00:45:56.154Z,177.75
2019-03-29T00:48:24.678Z,177.60
2019-03-29T00:50:53.226Z,150.65
2019-03-29T00:53:21.701Z,177.02
2019-03-29T00:55:50.220Z,145.10
2019-03-29T00:58:18.709Z,158.18
2019-03-29T01:03:28.339Z,171.87
2019-03-29T01:05:56.859Z,173.78
2019-03-29T01:08:25.642Z,173.43
2019-03-29T01:10:54.102Z,155.82
2019-03-29T01:13:22.644Z,170.92
2019-03-29T01:15:51.180Z,149.02
2019-03-29T01:18:19.694Z,145.87
2019-03-29T01:20:48.326Z,114.28
2019-03-29T01:23:16.851Z,127.38
2019-03-29T01:25:45.390Z,127.32
2019-03-29T01:28:13.954Z,160.10
2019-03-29T01:30:42.451Z,169.93
2019-03-29T01:33:11.048Z,161.70
2019-03-29T01:35:39.533Z,147.02
2019-03-29T01:38:20.780Z,168.72
2019-03-29T01:40:38.303Z,166.53
2019-03-29T01:43:06.774Z,174.05
2019-03-29T01:45:35.318Z,186.97
2019-03-29T01:48:03.924Z,193.62
2019-03-29T01:50:32.499Z,171.77
2019-03-29T01:53:01.029Z,162.35
2019-03-29T01:55:29.539Z,175.00
2019-03-29T01:57:58.957Z,185.95
2019-03-29T02:00:32.879Z,155.95
2019-03-29T02:03:01.782Z,180.87
2019-03-29T02:05:30.699Z,184.65
2019-03-29T02:07:59.418Z,177.38
2019-03-29T02:10:28.073Z,163.90
2019-03-29T02:12:56.618Z,158.00
2019-03-29T02:15:25.311Z,135.68
2019-03-29T02:17:53.875Z,122.20
2019-03-29T02:20:23.847Z,115.30
2019-03-29T02:22:52.829Z,125.65
2019-03-29T02:25:21.350Z,108.27
2019-03-29T02:27:49.887Z,117.95
2019-03-29T02:30:18.612Z,138.00
2019-03-29T02:32:47.274Z,122.25
2019-03-29T02:35:15.865Z,128.50
2019-03-29T02:37:44.379Z,155.67
2019-03-29T02:40:13.070Z,139.70
2019-03-29T02:42:42.655Z,124.50
2019-03-29T02:45:12.157Z,142.90
2019-03-29T02:47:40.731Z,133.78
2019-03-29T02:50:09.703Z,125.42
2019-03-29T02:52:38.228Z,134.30
2019-03-29T02:55:07.653Z,122.33
2019-03-29T02:57:36.224Z,113.20
2019-03-29T03:00:07.710Z,94.10
2019-03-29T03:02:36.324Z,118.28
2019-03-29T03:05:06.847Z,76.65
2019-03-29T03:07:35.444Z,95.10
2019-03-29T03:10:09.007Z,92.60
2019-03-29T03:12:37.679Z,102.87
2019-03-29T03:15:07.422Z,84.60
2019-03-29T03:17:36.003Z,101.27
2019-03-29T03:20:14.611Z,95.72
2019-03-29T03:22:40.847Z,80.22
2019-03-29T03:25:10.023Z,71.75
2019-03-29T03:27:38.570Z,71.92
2019-03-29T03:30:11.985Z,79.45
2019-03-29T03:32:40.574Z,98.75
2019-03-29T03:35:10.586Z,90.38
2019-03-29T03:37:39.283Z,101.35
2019-03-29T03:40:09.422Z,81.85
2019-03-29T03:42:38.091Z,62.03
2019-03-29T03:45:10.159Z,88.70
2019-03-29T03:47:41.755Z,119.20
2019-03-29T03:50:31.608Z,124.60
2019-03-29T03:53:00.251Z,112.17
2019-03-29T03:55:29.919Z,99.22
2019-03-29T03:57:58.475Z,91.08
2019-03-29T04:00:30.131Z,103.22
2019-03-29T04:02:58.707Z,73.40
2019-03-29T04:05:27.253Z,86.70
2019-03-29T04:07:55.721Z,96.87
2019-03-29T04:10:24.350Z,76.97
2019-03-29T04:12:52.956Z,76.82
2019-03-29T04:15:21.517Z,104.70
2019-03-29T04:17:50.108Z,101.80
2019-03-29T04:20:19.046Z,113.70
2019-03-29T04:22:47.565Z,139.50
2019-03-29T04:25:16.087Z,165.00
2019-03-29T04:27:44.769Z,173.45
2019-03-29T04:30:13.540Z,170.57
2019-03-29T04:32:42.128Z,177.15
2019-03-29T04:35:10.757Z,172.43
2019-03-29T04:37:39.371Z,161.03
2019-03-29T04:40:08.955Z,151.18
2019-03-29T04:42:37.743Z,158.68
2019-03-29T04:45:06.889Z,163.28
2019-03-29T04:47:35.415Z,184.25
2019-03-29T04:50:06.760Z,215.65
2019-03-29T04:52:35.368Z,162.30
2019-03-29T04:55:05.892Z,180.55
2019-03-29T04:57:34.451Z,184.80
2019-03-29T05:00:03.074Z,169.28
2019-03-29T05:02:31.730Z,161.18
2019-03-29T05:05:00.441Z,166.73
2019-03-29T05:07:28.967Z,162.43
2019-03-29T05:09:57.555Z,147.07
2019-03-29T05:12:26.099Z,127.53
2019-03-29T05:14:54.615Z,108.35
2019-03-29T05:17:23.177Z,97.65
2019-03-29T05:19:51.741Z,79.95
2019-03-29T05:22:20.287Z,73.87
2019-03-29T05:24:48.840Z,94.62
2019-03-29T05:27:17.837Z,104.97
2019-03-29T05:29:46.389Z,99.72
2019-03-29T05:32:15.008Z,107.55
2019-03-29T05:34:43.581Z,125.72
2019-03-29T05:37:12.144Z,134.90
2019-03-29T05:39:40.893Z,167.68
2019-03-29T05:42:09.379Z,134.60
2019-03-29T05:44:40.717Z,130.97
2019-03-29T05:47:08.143Z,149.25
2019-03-29T05:49:36.739Z,134.72
2019-03-29T05:52:05.470Z,152.12
2019-03-29T05:54:33.973Z,147.20
2019-03-29T05:57:04.855Z,132.85
2019-03-29T05:59:33.456Z,114.80
2019-03-29T06:02:02.125Z,106.87
2019-03-29T06:04:30.785Z,103.25
2019-03-29T06:06:59.430Z,96.05
2019-03-29T06:09:29.620Z,95.83
2019-03-29T06:11:58.220Z,91.17
2019-03-29T06:14:29.383Z,102.92
2019-03-29T06:17:00.923Z,119.22
2019-03-29T06:19:32.374Z,92.35
2019-03-29T06:22:00.911Z,111.55
2019-03-29T06:24:33.890Z,168.52
2019-03-29T06:27:02.477Z,172.13
2019-03-29T06:29:31.155Z,259.65
2019-03-29T06:31:59.843Z,132.32
2019-03-29T06:34:28.506Z,80.12
2019-03-29T06:36:58.679Z,211.37
2019-03-29T06:39:28.312Z,293.05
2019-03-29T06:41:57.004Z,201.90
2019-03-29T06:44:25.678Z,140.68
2019-03-29T06:46:54.279Z,93.00
2019-03-29T06:49:22.876Z,90.28
2019-03-29T06:51:51.828Z,98.03
2019-03-29T06:54:20.447Z,99.87
2019-03-29T06:56:48.990Z,122.47
2019-03-29T06:59:17.594Z,112.70
2019-03-29T07:01:46.613Z,123.78
2019-03-29T07:04:15.330Z,113.05
2019-03-29T07:06:44.004Z,107.32
2019-03-29T07:09:12.953Z,102.87
2019-03-29T07:11:41.508Z,102.25
2019-03-29T07:14:10.040Z,109.12
2019-03-29T07:16:38.587Z,104.17
2019-03-29T07:19:07.080Z,110.78
2019-03-29T07:21:38.606Z,114.28
2019-03-29T07:24:07.348Z,111.95
2019-03-29T07:26:36.056Z,107.12
2019-03-29T07:29:04.825Z,108.03
2019-03-29T07:31:33.558Z,110.30
2019-03-29T07:34:09.843Z,112.77
2019-03-29T07:36:41.160Z,109.12
2019-03-29T07:39:06.676Z,104.03
2019-03-29T07:41:36.914Z,104.70
2019-03-29T07:44:32.409Z,109.52
2019-03-29T07:46:57.140Z,109.78
2019-03-29T07:49:27.572Z,105.22
2019-03-29T07:52:02.422Z,111.22
2019-03-29T07:54:34.536Z,101.80
2019-03-29T07:57:05.912Z,106.43
2019-03-29T07:59:34.640Z,108.27
2019-03-29T08:02:03.564Z,100.10
2019-03-29T08:04:32.522Z,97.75
2019-03-29T08:07:06.036Z,102.80
2019-03-29T08:09:36.183Z,89.90
2019-03-29T08:12:05.164Z,84.92
2019-03-29T08:14:36.958Z,90.22
2019-03-29T08:17:07.555Z,88.27
2019-03-29T08:19:40.812Z,91.15
2019-03-29T08:22:13.739Z,84.70
2019-03-29T08:24:40.855Z,86.02
2019-03-29T08:27:09.748Z,84.70
2019-03-29T08:29:41.033Z,85.05
2019-03-29T08:32:11.606Z,81.08
2019-03-29T08:34:57.069Z,81.72
2019-03-29T08:37:15.484Z,79.82
2019-03-29T08:39:44.059Z,83.75
2019-03-29T08:42:18.568Z,81.05
2019-03-29T08:44:50.492Z,84.83
2019-03-29T08:47:20.667Z,80.53
2019-03-29T08:49:56.085Z,77.87
2019-03-29T08:52:27.924Z,69.80
2019-03-29T08:56:33.262Z,67.47
2019-03-29T08:57:36.663Z,66.15
2019-03-29T09:00:24.292Z,55.90
2019-03-29T09:02:55.604Z,56.42
2019-03-29T09:08:01.441Z,55.08
2019-03-29T09:10:34.218Z,61.50
2019-03-29T09:13:11.899Z,63.38
2019-03-29T09:15:48.971Z,64.90
2019-03-29T09:18:25.973Z,66.07
2019-03-29T09:20:55.599Z,68.95
2019-03-29T09:23:24.389Z,59.93
2019-03-29T09:25:54.729Z,60.17
2019-03-29T09:28:26.175Z,52.27
2019-03-29T09:30:56.630Z,51.75
2019-03-29T09:33:58.362Z,50.88
2019-03-29T09:36:22.627Z,57.78
2019-03-29T09:38:56.809Z,54.40
2019-03-29T09:41:37.023Z,57.70
2019-03-29T09:44:04.887Z,47.60
2019-03-29T09:46:33.705Z,47.70
2019-03-29T09:49:03.669Z,44.93
2019-03-29T09:51:37.530Z,40.70
2019-03-29T09:54:06.248Z,43.78
2019-03-29T09:56:39.559Z,45.35
2019-03-29T09:59:23.141Z,44.63
2019-03-29T10:02:03.025Z,43.45
2019-03-29T10:04:31.274Z,34.80
2019-03-29T10:07:10.933Z,45.48
2019-03-29T10:09:39.860Z,40.73
2019-03-29T10:12:17.198Z,38.95
2019-03-29T10:14:54.144Z,37.58
2019-03-29T10:17:37.788Z,38.20
2019-03-29T10:20:24.018Z,33.67
2019-03-29T10:22:52.667Z,34.38
2019-03-29T10:25:21.749Z,30.17
2019-03-29T10:27:50.442Z,32.83
2019-03-29T10:30:46.001Z,28.00
2019-03-29T10:33:12.603Z,27.77
2019-03-29T10:35:51.490Z,26.93
2019-03-29T10:38:11.477Z,26.30
2019-03-29T10:40:39.964Z,27.85
2019-03-29T10:43:08.853Z,25.23
2019-03-29T10:45:40.302Z,25.88
2019-03-29T10:48:07.564Z,22.13
2019-03-29T10:50:36.038Z,24.55
2019-03-29T10:53:04.792Z,28.23
2019-03-29T10:55:33.262Z,26.77
2019-03-29T10:58:01.819Z,15.05
2019-03-29T11:00:33.350Z,18.37
2019-03-29T11:03:01.862Z,22.55
2019-03-29T11:05:30.770Z,20.65
2019-03-29T11:07:59.519Z,29.15
2019-03-29T11:10:30.578Z,22.67
2019-03-29T11:13:11.974Z,24.18
2019-03-29T11:15:30.260Z,23.35
2019-03-29T11:17:58.724Z,23.00
2019-03-29T11:20:27.258Z,24.00
2019-03-29T11:22:55.972Z,24.23
2019-03-29T11:25:24.474Z,21.52
2019-03-29T11:27:53.032Z,25.02
2019-03-29T11:30:21.584Z,23.52
2019-03-29T11:32:50.044Z,22.82
2019-03-29T11:35:18.520Z,25.35
2019-03-29T11:37:46.984Z,26.85
2019-03-29T11:40:15.614Z,23.85
2019-03-29T11:42:44.146Z,22.48
2019-03-29T11:45:12.698Z,22.40
2019-03-29T11:47:41.468Z,20.52
2019-03-29T11:50:10.136Z,22.90
2019-03-29T11:52:38.691Z,25.50
2019-03-29T11:55:07.288Z,21.75
2019-03-29T11:57:35.859Z,21.15
2019-03-29T12:00:06.152Z,22.80
2019-03-29T12:02:34.622Z,24.25
2019-03-29T12:05:03.262Z,24.02
2019-03-29T12:07:31.837Z,23.73
2019-03-29T12:10:00.392Z,24.02
2019-03-29T12:12:28.851Z,25.35
2019-03-29T12:14:57.490Z,24.60
2019-03-29T12:17:26.042Z,23.67
2019-03-29T12:19:54.534Z,24.37
2019-03-29T12:22:23.008Z,26.00
2019-03-29T12:24:51.574Z,26.52
2019-03-29T12:27:20.138Z,25.35
2019-03-29T12:29:48.687Z,31.82
2019-03-29T12:32:17.258Z,29.72
2019-03-29T12:34:45.797Z,30.25
2019-03-29T12:37:14.301Z,29.60
2019-03-29T12:39:42.900Z,27.48
2019-03-29T12:42:11.394Z,24.82
2019-03-29T12:44:39.977Z,26.93
2019-03-29T12:47:08.542Z,30.45
2019-03-29T12:49:37.043Z,26.57
2019-03-29T12:52:05.900Z,26.97
2019-03-29T12:54:34.409Z,23.45
2019-03-29T12:57:02.979Z,31.57
2019-03-29T12:59:32.900Z,29.77
2019-03-29T13:02:01.904Z,29.07
2019-03-29T13:04:30.453Z,32.13
2019-03-29T13:06:59.188Z,30.43
2019-03-29T13:09:27.674Z,33.10
2019-03-29T13:11:56.197Z,29.85
2019-03-29T13:14:24.680Z,27.95
2019-03-29T13:16:53.317Z,32.53
2019-03-29T13:19:21.877Z,29.87
2019-03-29T13:21:50.343Z,31.30
2019-03-29T13:24:18.806Z,34.70
2019-03-29T13:26:47.367Z,31.33
2019-03-29T13:29:15.829Z,29.60
2019-03-29T13:31:44.319Z,32.65
2019-03-29T13:34:12.840Z,29.23
2019-03-29T13:36:41.344Z,30.00
2019-03-29T13:39:09.839Z,31.57
2019-03-29T13:41:38.285Z,30.08
2019-03-29T13:44:06.751Z,29.27
2019-03-29T13:46:35.283Z,29.82
2019-03-29T13:49:03.744Z,28.12
2019-03-29T13:51:32.301Z,28.02
2019-03-29T13:54:00.844Z,32.53
2019-03-29T13:56:29.415Z,33.55
2019-03-29T13:58:57.886Z,30.75
2019-03-29T14:01:26.368Z,30.62
2019-03-29T14:03:55.187Z,29.12
2019-03-29T14:06:23.715Z,28.90
2019-03-29T14:08:52.173Z,26.95
2019-03-29T14:11:20.662Z,29.63
2019-03-29T14:13:49.127Z,30.55
2019-03-29T14:16:17.687Z,28.65
2019-03-29T14:18:46.162Z,30.08
2019-03-29T14:21:14.625Z,25.35
2019-03-29T14:23:43.182Z,31.65
2019-03-29T14:26:11.651Z,24.87
2019-03-29T14:28:40.176Z,26.37
2019-03-29T14:31:08.790Z,25.35
2019-03-29T14:33:37.258Z,29.55
2019-03-29T14:36:05.737Z,22.82
2019-03-29T14:38:34.378Z,23.85
2019-03-29T14:41:02.884Z,22.73
2019-03-29T14:43:31.378Z,23.95
2019-03-29T14:45:59.897Z,21.93
2019-03-29T14:48:28.460Z,22.30
2019-03-29T14:50:56.967Z,21.93
2019-03-29T14:53:25.457Z,23.60
2019-03-29T14:55:54.068Z,21.97
2019-03-29T14:58:22.554Z,25.05
2019-03-29T15:00:51.062Z,22.22
2019-03-29T15:03:19.970Z,20.43
2019-03-29T15:05:48.595Z,21.35
2019-03-29T15:08:17.129Z,18.90
2019-03-29T15:10:46.249Z,21.70
2019-03-29T15:13:14.720Z,24.52
2019-03-29T15:15:43.339Z,24.63
2019-03-29T15:18:11.906Z,20.80
2019-03-29T15:20:52.531Z,19.85
2019-03-29T15:23:10.706Z,19.77
2019-03-29T15:25:40.692Z,23.35
2019-03-29T15:28:09.564Z,21.77
2019-03-29T15:30:38.079Z,19.15
2019-03-29T15:33:06.568Z,18.95
2019-03-29T15:35:35.136Z,21.25
2019-03-29T15:38:03.749Z,19.42
2019-03-29T15:40:32.733Z,18.90
2019-03-29T15:43:01.320Z,20.35
2019-03-29T15:45:29.881Z,18.62
2019-03-29T15:47:58.405Z,16.90
2019-03-29T15:50:27.261Z,18.48
2019-03-29T15:52:55.814Z,14.07
2019-03-29T15:55:24.285Z,15.05
2019-03-29T15:57:52.802Z,17.00
2019-03-29T16:00:21.281Z,15.72
2019-03-29T16:02:49.852Z,17.82
2019-03-29T16:05:18.347Z,15.15
2019-03-29T16:07:46.820Z,15.25
2019-03-29T16:10:15.457Z,17.15
2019-03-29T16:12:43.949Z,15.18
2019-03-29T16:15:12.519Z,14.55
2019-03-29T16:17:41.019Z,15.00
2019-03-29T16:20:09.780Z,15.00
2019-03-29T16:22:38.358Z,15.55
2019-03-29T16:25:07.786Z,13.18
2019-03-29T16:27:36.279Z,17.87
2019-03-29T16:30:07.561Z,14.98
2019-03-29T16:32:36.940Z,15.03
2019-03-29T16:35:08.251Z,13.90
2019-03-29T16:37:36.892Z,15.88
2019-03-29T16:40:07.105Z,16.55
2019-03-29T16:42:35.885Z,17.07
2019-03-29T16:45:06.615Z,18.15
2019-03-29T16:47:35.158Z,19.00
2019-03-29T16:50:05.757Z,17.02
2019-03-29T16:52:34.279Z,20.15
2019-03-29T16:55:13.147Z,17.55
2019-03-29T16:57:33.095Z,18.05
2019-03-29T17:00:01.680Z,19.25
2019-03-29T17:02:30.261Z,19.05
2019-03-29T17:04:58.791Z,19.77
2019-03-29T17:07:27.383Z,19.57
2019-03-29T17:09:55.878Z,19.25
2019-03-29T17:12:24.345Z,18.10
2019-03-29T17:14:52.882Z,18.00
2019-03-29T17:17:21.492Z,18.98
2019-03-29T17:19:50.054Z,18.65
2019-03-29T17:22:18.608Z,19.20
2019-03-29T17:24:56.851Z,19.48
2019-03-29T17:27:17.375Z,18.70
2019-03-29T17:29:45.848Z,19.50
2019-03-29T17:32:14.391Z,20.32
2019-03-29T17:34:42.907Z,22.20
2019-03-29T17:37:11.753Z,23.15
2019-03-29T17:39:40.317Z,22.17
2019-03-29T17:42:08.850Z,20.62
2019-03-29T17:44:37.307Z,22.25
2019-03-29T17:47:05.811Z,22.70
2019-03-29T17:49:34.280Z,22.10
2019-03-29T17:52:02.767Z,20.40
2019-03-29T17:54:31.234Z,23.38
2019-03-29T17:56:59.716Z,25.90
2019-03-29T17:59:28.201Z,24.15
2019-03-29T18:02:08.813Z,21.48
2019-03-29T18:04:27.591Z,23.83
2019-03-29T18:06:56.066Z,24.32
2019-03-29T18:09:24.690Z,24.98
2019-03-29T18:11:53.248Z,22.17
2019-03-29T18:14:22.211Z,26.02
2019-03-29T18:16:50.694Z,24.55
2019-03-29T18:19:19.328Z,24.25
2019-03-29T18:21:47.871Z,23.80
2019-03-29T18:24:16.380Z,23.90
2019-03-29T18:26:44.956Z,22.32
2019-03-29T18:29:13.835Z,26.80
2019-03-29T18:31:42.489Z,24.80
2019-03-29T18:34:11.107Z,25.80
2019-03-29T18:36:40.744Z,23.15
2019-03-29T18:39:09.357Z,21.42
2019-03-29T18:41:38.008Z,26.15
2019-03-29T18:44:06.525Z,26.82
2019-03-29T18:46:44.482Z,24.30
2019-03-29T18:49:05.660Z,24.18
2019-03-29T18:51:34.256Z,26.25
2019-03-29T18:54:02.828Z,24.80
2019-03-29T18:56:31.354Z,26.85
2019-03-29T18:58:59.815Z,27.58
2019-03-29T19:01:28.404Z,31.82
2019-03-29T19:03:56.885Z,42.78
2019-03-29T19:06:25.358Z,36.00
2019-03-29T19:08:53.882Z,34.78
2019-03-29T19:11:22.458Z,36.53
2019-03-29T19:13:50.967Z,28.73
2019-03-29T19:16:19.964Z,27.50
2019-03-29T19:18:48.515Z,24.57
2019-03-29T19:21:17.173Z,27.13
2019-03-29T19:23:45.698Z,28.20
2019-03-29T19:26:14.277Z,26.35
2019-03-29T19:28:42.873Z,31.77
2019-03-29T19:31:11.363Z,27.13
2019-03-29T19:33:40.198Z,27.13
2019-03-29T19:36:08.757Z,28.07
2019-03-29T19:38:37.406Z,29.15
2019-03-29T19:41:05.938Z,27.50
2019-03-29T19:43:34.442Z,32.73
2019-03-29T19:46:03.078Z,27.85
2019-03-29T19:48:31.639Z,27.75
2019-03-29T19:51:00.155Z,28.62
2019-03-29T19:53:28.848Z,26.93
2019-03-29T19:55:57.490Z,29.25
2019-03-29T19:58:26.069Z,29.75
2019-03-29T20:00:54.662Z,32.40
2019-03-29T20:03:23.235Z,30.92
2019-03-29T20:05:51.838Z,31.73
2019-03-29T20:08:20.381Z,31.37
2019-03-29T20:10:48.978Z,32.80
2019-03-29T20:13:17.730Z,35.20
2019-03-29T20:15:46.281Z,32.55
2019-03-29T20:18:14.883Z,30.02
2019-03-29T20:20:43.380Z,35.65
2019-03-29T20:23:11.858Z,31.62
2019-03-29T20:25:40.379Z,35.17
2019-03-29T20:28:08.956Z,44.20
2019-03-29T20:30:37.855Z,38.60
2019-03-29T20:33:06.399Z,38.35
2019-03-29T20:35:35.060Z,38.17
2019-03-29T20:38:03.624Z,39.78
2019-03-29T20:40:32.582Z,36.35
2019-03-29T20:43:01.135Z,44.80
2019-03-29T20:45:29.698Z,37.67
2019-03-29T20:47:58.349Z,31.68
2019-03-29T20:50:26.863Z,37.70
2019-03-29T20:52:55.371Z,38.92
2019-03-29T20:55:24.000Z,35.25
2019-03-29T20:57:52.466Z,40.92
2019-03-29T21:00:21.195Z,48.98
2019-03-29T21:02:49.735Z,50.35
2019-03-29T21:05:18.448Z,51.23
2019-03-29T21:07:46.999Z,58.87
2019-03-29T21:10:15.607Z,50.38
2019-03-29T21:12:44.094Z,60.90
2019-03-29T21:15:13.061Z,54.80
2019-03-29T21:17:55.588Z,52.48
2019-03-29T21:20:11.918Z,49.95
2019-03-29T21:22:40.453Z,51.83
2019-03-29T21:25:09.353Z,51.53
2019-03-29T21:27:38.091Z,64.87
2019-03-29T21:30:09.756Z,70.20
2019-03-29T21:32:38.305Z,79.50
2019-03-29T21:35:08.005Z,77.47
2019-03-29T21:37:36.999Z,80.72
2019-03-29T21:40:07.755Z,80.87
2019-03-29T21:42:36.740Z,82.35
2019-03-29T21:45:07.220Z,80.83
2019-03-29T21:47:35.852Z,82.10
2019-03-29T21:50:07.583Z,73.07
2019-03-29T21:52:36.279Z,70.35
2019-03-29T21:55:08.005Z,80.00
2019-03-29T21:57:36.489Z,66.90
2019-03-29T22:00:08.350Z,87.37
2019-03-29T22:02:37.047Z,80.65
2019-03-29T22:05:10.026Z,90.57
2019-03-29T22:07:36.679Z,73.97
2019-03-29T22:10:10.657Z,76.65
2019-03-29T22:15:09.018Z,76.90
2019-03-29T22:17:37.773Z,92.17
2019-03-29T22:20:11.191Z,72.00
2019-03-29T22:22:39.683Z,90.90
2019-03-29T22:25:11.269Z,88.33
2019-03-29T22:27:40.214Z,84.22
2019-03-29T22:30:13.277Z,85.60
2019-03-29T22:32:41.752Z,77.50
2019-03-29T22:35:10.292Z,78.78
2019-03-29T22:37:41.062Z,79.45
2019-03-29T22:40:09.996Z,87.97
2019-03-29T22:42:40.257Z,79.90
2019-03-29T22:45:10.055Z,83.15
2019-03-29T22:47:38.533Z,98.17
2019-03-29T22:50:07.375Z,104.25
2019-03-29T22:52:36.041Z,97.65
2019-03-29T22:55:06.520Z,110.65
2019-03-29T22:57:35.008Z,106.87
2019-03-29T23:00:05.590Z,102.67
2019-03-29T23:02:34.131Z,101.53
2019-03-29T23:05:02.619Z,106.78
2019-03-29T23:07:31.101Z,101.45
2019-03-29T23:09:59.578Z,108.63
2019-03-29T23:12:28.148Z,107.05
2019-03-29T23:14:56.708Z,110.37
2019-03-29T23:17:25.179Z,109.83
2019-03-29T23:19:53.920Z,114.05
2019-03-29T23:22:22.468Z,111.28
2019-03-29T23:24:50.927Z,119.62
2019-03-29T23:27:19.418Z,110.17
2019-03-29T23:29:47.950Z,118.70
2019-03-29T23:32:16.461Z,116.42
2019-03-29T23:34:45.028Z,116.12
2019-03-29T23:37:13.570Z,117.08
2019-03-29T23:39:42.074Z,127.80
2019-03-29T23:42:10.600Z,125.05
2019-03-29T23:44:39.081Z,126.92
2019-03-29T23:47:07.579Z,122.30
2019-03-29T23:49:36.110Z,127.25
2019-03-29T23:52:04.576Z,119.02
2019-03-29T23:54:33.048Z,120.47
2019-03-29T23:57:01.540Z,114.75
2019-03-29T23:59:30.458Z,115.60
